METAR Data

Data at: 1746 UTC 21 Nov 2018

METAR for:KBVY (Beverly Muni, MA, US)
Text:KBVY 211653Z 22011KT 10SM BKN048 OVC110 03/M04 A2989 RMK AO2 SLP118 T00331039
Temperature: 3.3°C ( 38°F)
Dewpoint: -3.9°C ( 25°F) [RH = 59%]
Pressure (altimeter):29.89 inches Hg (1012.3 mb) [Sea level pressure: 1011.8 mb]
Winds:from the SW (220 degrees) at 13 MPH (11 knots; 5.7 m/s)
Visibility:10 or more sm (16+ km)
Ceiling:4800 feet AGL
Clouds: broken clouds at 4800 feet AGL, overcast cloud deck at 11000 feet AGL